Time;durP1;ratioP1;P1;durP2;ratioP2;P2;SDS_P1;SDS_P2;PMS_P1;PMS_P2;Temp;Humidity;BMP_temperature;BMP_pressure;BME280_temperature;BME280_humidity;BME280_pressure;Samples;Min_cycle;Max_cycle;Signal;HPM_P1;HPM_P2
2022/03/01 00:00:39;;;;;;;13.95;6.47;;;-2.00;77.00;;;;;;5115610;28;20036;-80
2022/03/01 00:03:06;;;;;;;11.40;6.28;;;-2.10;77.10;;;;;;5115324;28;20016;-79
2022/03/01 00:05:32;;;;;;;14.25;6.47;;;-2.10;77.20;;;;;;5116026;28;20110;-78
2022/03/01 00:07:58;;;;;;;15.55;7.95;;;-2.10;77.40;;;;;;5116151;28;20076;-79
2022/03/01 00:10:24;;;;;;;13.88;6.80;;;-2.10;77.50;;;;;;5116140;28;20496;-80
2022/03/01 00:12:50;;;;;;;14.27;6.60;;;-2.20;77.60;;;;;;5122135;28;20026;-78
2022/03/01 00:15:15;;;;;;;11.52;5.88;;;-2.10;77.70;;;;;;5128696;28;20023;-77
2022/03/01 00:17:41;;;;;;;9.63;5.60;;;-2.10;77.50;;;;;;5112305;28;20024;-77
2022/03/01 00:20:07;;;;;;;15.23;7.75;;;-2.00;77.30;;;;;;5096291;28;20464;-79
2022/03/01 00:22:33;;;;;;;12.02;6.57;;;-2.00;76.90;;;;;;5099181;28;20018;-79
2022/03/01 00:25:00;;;;;;;14.27;6.60;;;-2.00;76.90;;;;;;5097955;28;20032;-80
2022/03/01 00:27:26;;;;;;;12.35;6.45;;;-2.00;76.90;;;;;;5115723;28;20027;-79
2022/03/01 00:29:51;;;;;;;13.50;7.47;;;-2.00;76.90;;;;;;5097129;28;20114;-80
2022/03/01 00:32:17;;;;;;;10.85;6.25;;;-2.00;76.90;;;;;;5115084;28;20027;-79
2022/03/01 00:34:43;;;;;;;11.60;6.18;;;-2.00;76.80;;;;;;5114821;28;20030;-78
2022/03/01 00:37:09;;;;;;;14.32;6.70;;;-2.00;76.70;;;;;;5114880;28;20024;-79
2022/03/01 00:39:35;;;;;;;12.90;6.88;;;-2.10;76.90;;;;;;5114234;28;20028;-78
2022/03/01 00:42:01;;;;;;;9.30;5.22;;;-2.10;77.10;;;;;;5114252;28;20038;-79
2022/03/01 00:44:27;;;;;;;12.02;6.20;;;-2.20;77.40;;;;;;5114538;28;20055;-79
2022/03/01 00:46:53;;;;;;;13.23;6.85;;;-2.30;77.60;;;;;;5095900;28;20051;-79
2022/03/01 00:49:18;;;;;;;16.20;7.82;;;-2.30;77.90;;;;;;5096264;28;20032;-81
2022/03/01 00:51:45;;;;;;;18.80;6.25;;;-2.30;78.00;;;;;;5114532;28;20438;-78
2022/03/01 00:54:10;;;;;;;11.68;6.35;;;-2.30;78.00;;;;;;5114241;28;20012;-80
2022/03/01 00:56:36;;;;;;;13.75;8.00;;;-2.30;78.00;;;;;;5114228;28;20027;-80
2022/03/01 00:59:02;;;;;;;17.95;8.32;;;-2.30;78.10;;;;;;5114133;28;20024;-79
2022/03/01 01:01:29;;;;;;;14.20;7.35;;;-2.40;78.20;;;;;;5114239;28;20027;-77
2022/03/01 01:03:54;;;;;;;13.95;6.82;;;-2.40;78.30;;;;;;5113903;28;20388;-79
2022/03/01 01:06:20;;;;;;;11.98;6.88;;;-2.40;78.50;;;;;;5113909;28;20027;-78
2022/03/01 01:08:46;;;;;;;12.43;7.32;;;-2.40;78.50;;;;;;5114018;28;20098;-77
2022/03/01 01:11:12;;;;;;;14.35;6.13;;;-2.40;78.60;;;;;;5114059;28;20051;-78
2022/03/01 01:13:38;;;;;;;14.18;6.25;;;-2.50;78.70;;;;;;5114352;28;20484;-80
2022/03/01 01:16:04;;;;;;;11.32;6.50;;;-2.50;78.80;;;;;;5113953;28;20054;-78
2022/03/01 01:18:29;;;;;;;15.85;6.30;;;-2.50;79.00;;;;;;5113875;28;20019;-79
2022/03/01 01:20:55;;;;;;;12.25;7.80;;;-2.50;79.20;;;;;;5113619;28;20027;-80
2022/03/01 01:23:21;;;;;;;14.13;7.63;;;-2.60;79.30;;;;;;5113579;28;20027;-78
2022/03/01 01:25:48;;;;;;;15.80;6.50;;;-2.60;79.40;;;;;;5113831;28;20362;-79
2022/03/01 01:28:14;;;;;;;13.40;6.80;;;-2.60;79.30;;;;;;5113792;28;20020;-79
2022/03/01 01:30:39;;;;;;;12.40;7.25;;;-2.60;79.30;;;;;;5113847;28;20103;-79
2022/03/01 01:33:05;;;;;;;11.77;6.35;;;-2.60;79.20;;;;;;5113955;28;20081;-77
2022/03/01 01:35:34;;;;;;;12.38;6.25;;;-2.50;79.40;;;;;;5113930;28;20146;-79
2022/03/01 01:38:00;;;;;;;17.52;7.38;;;-2.50;79.30;;;;;;5098732;28;20028;-77
2022/03/01 01:40:28;;;;;;;14.90;6.82;;;-2.50;79.30;;;;;;5121514;28;20046;-77
2022/03/01 01:42:55;;;;;;;10.27;6.70;;;-2.60;79.30;;;;;;5122518;28;20034;-79
2022/03/01 01:45:23;;;;;;;10.65;5.90;;;-2.60;79.50;;;;;;5115999;28;20068;-78
2022/03/01 01:47:50;;;;;;;14.43;6.60;;;-2.70;79.60;;;;;;5114091;28;20487;-77
2022/03/01 01:50:17;;;;;;;13.63;7.10;;;-2.70;79.80;;;;;;5115789;28;20023;-79
2022/03/01 01:52:48;;;;;;;14.35;6.78;;;-2.70;79.90;;;;;;5113623;28;20027;-77
2022/03/01 01:55:16;;;;;;;11.20;6.88;;;-2.70;80.00;;;;;;5113789;28;20031;-78
2022/03/01 01:57:41;;;;;;;11.13;6.47;;;-2.70;79.90;;;;;;5113246;28;20100;-78
2022/03/01 02:00:10;;;;;;;10.00;6.10;;;-2.70;79.90;;;;;;5112905;28;20055;-79
2022/03/01 02:02:37;;;;;;;18.17;6.35;;;-2.80;80.00;;;;;;5113269;28;20365;-79
2022/03/01 02:05:03;;;;;;;14.73;7.50;;;-2.80;80.10;;;;;;5095056;28;20438;-78
2022/03/01 02:07:29;;;;;;;13.90;6.65;;;-2.80;80.20;;;;;;5113512;28;20032;-78
2022/03/01 02:09:55;;;;;;;15.07;7.28;;;-2.80;80.30;;;;;;5100137;28;20031;-78
2022/03/01 02:12:21;;;;;;;9.05;6.22;;;-2.80;80.30;;;;;;5117517;28;20023;-79
2022/03/01 02:14:48;;;;;;;13.70;6.82;;;-2.90;80.30;;;;;;5113045;28;20054;-78
2022/03/01 02:17:16;;;;;;;10.98;6.30;;;-2.80;80.50;;;;;;5112730;28;20110;-79
2022/03/01 02:19:49;;;;;;;9.32;5.72;;;-2.80;80.30;;;;;;5114788;28;20066;-77
2022/03/01 02:22:14;;;;;;;10.23;6.55;;;-2.80;80.00;;;;;;5113885;28;20055;-78
2022/03/01 02:24:40;;;;;;;13.07;8.02;;;-2.80;79.80;;;;;;5115267;28;20464;-77
2022/03/01 02:27:06;;;;;;;16.77;6.38;;;-2.80;79.80;;;;;;5117311;28;20023;-78
2022/03/01 02:29:33;;;;;;;13.98;7.57;;;-2.90;79.90;;;;;;5118542;28;20069;-79
2022/03/01 02:32:05;;;;;;;11.80;6.32;;;-2.90;80.20;;;;;;5115837;28;20031;-77
2022/03/01 02:34:31;;;;;;;10.73;6.28;;;-3.00;80.30;;;;;;5096712;28;20171;-77
2022/03/01 02:36:56;;;;;;;14.73;6.90;;;-3.10;80.50;;;;;;5113547;28;20023;-77
2022/03/01 02:39:23;;;;;;;10.68;7.10;;;-3.00;80.90;;;;;;5113037;28;20028;-77
2022/03/01 02:41:49;;;;;;;18.10;7.20;;;-3.00;81.20;;;;;;5112821;28;20019;-78
2022/03/01 02:44:15;;;;;;;16.48;7.63;;;-3.10;81.00;;;;;;5112808;28;20026;-78
2022/03/01 02:46:41;;;;;;;12.43;7.80;;;-3.00;81.10;;;;;;5112796;28;20043;-79
2022/03/01 02:49:08;;;;;;;11.77;7.32;;;-3.00;80.90;;;;;;5112955;28;20464;-78
2022/03/01 02:51:34;;;;;;;11.32;7.25;;;-3.00;81.00;;;;;;5112956;28;20027;-76
2022/03/01 02:54:01;;;;;;;19.55;7.00;;;-3.00;81.00;;;;;;5113183;28;20476;-77
2022/03/01 02:56:27;;;;;;;13.55;6.40;;;-3.10;81.00;;;;;;5112966;28;20024;-79
2022/03/01 02:58:55;;;;;;;15.60;6.43;;;-3.10;81.20;;;;;;5112432;28;20484;-80
2022/03/01 03:01:22;;;;;;;15.38;9.80;;;-3.10;81.40;;;;;;5112313;28;20488;-78
2022/03/01 03:03:49;;;;;;;12.25;6.68;;;-3.20;81.40;;;;;;5097145;28;20077;-78
2022/03/01 03:06:15;;;;;;;18.38;9.98;;;-3.20;82.10;;;;;;5116309;28;20461;-78
2022/03/01 03:08:41;;;;;;;9.65;6.60;;;-3.20;81.70;;;;;;5098119;28;20073;-79
2022/03/01 03:11:07;;;;;;;17.40;6.93;;;-3.30;81.70;;;;;;5116289;28;20048;-80
2022/03/01 03:13:33;;;;;;;11.82;6.43;;;-3.20;81.70;;;;;;5116220;28;20418;-80
2022/03/01 03:15:59;;;;;;;16.75;6.82;;;-3.20;81.70;;;;;;5116283;28;20116;-78
2022/03/01 03:18:25;;;;;;;16.25;8.05;;;-3.30;81.70;;;;;;5116171;28;20027;-79
2022/03/01 03:20:51;;;;;;;8.82;6.05;;;-3.30;81.70;;;;;;5097831;28;20031;-79
2022/03/01 03:23:16;;;;;;;15.52;7.28;;;-3.30;81.80;;;;;;5116037;28;20039;-78
2022/03/01 03:25:42;;;;;;;18.50;8.05;;;-3.30;82.00;;;;;;5115885;28;20023;-78
2022/03/01 03:28:08;;;;;;;16.55;8.13;;;-3.30;82.00;;;;;;5116379;28;20603;-78
2022/03/01 03:30:34;;;;;;;13.18;7.45;;;-3.30;82.10;;;;;;5116010;28;20088;-79
2022/03/01 03:33:00;;;;;;;15.63;7.78;;;-3.30;82.10;;;;;;5115968;28;20016;-79
2022/03/01 03:35:26;;;;;;;11.00;6.93;;;-3.30;82.10;;;;;;5116081;28;20070;-79
2022/03/01 03:37:51;;;;;;;12.75;6.63;;;-3.20;82.10;;;;;;5115878;28;20084;-81
2022/03/01 03:40:17;;;;;;;13.77;8.02;;;-3.30;82.10;;;;;;5115658;28;20034;-77
2022/03/01 03:42:44;;;;;;;12.32;7.30;;;-3.20;82.20;;;;;;5115603;28;20072;-80
2022/03/01 03:45:11;;;;;;;12.15;6.70;;;-3.30;82.10;;;;;;5116160;28;20081;-80
2022/03/01 03:47:37;;;;;;;;;;;-3.30;82.20;;;;;;5097918;28;20043;-80
2022/03/01 03:50:04;;;;;;;11.15;6.95;;;-3.30;82.00;;;;;;5115502;28;19911;-81
2022/03/01 03:52:30;;;;;;;13.50;6.45;;;-3.40;82.00;;;;;;5115965;28;20156;-80
2022/03/01 03:54:56;;;;;;;13.85;6.88;;;-3.40;82.10;;;;;;5116189;28;20024;-78
2022/03/01 03:57:22;;;;;;;13.02;6.88;;;-3.40;82.40;;;;;;5115937;28;20050;-78
2022/03/01 03:59:48;;;;;;;11.50;7.05;;;-3.40;82.40;;;;;;5115844;28;20071;-81
2022/03/01 04:02:13;;;;;;;14.02;8.43;;;-3.30;82.40;;;;;;5120192;28;20031;-79
2022/03/01 04:04:39;;;;;;;8.75;5.28;;;-3.30;82.30;;;;;;5119553;28;20027;-78
2022/03/01 04:07:05;;;;;;;11.52;7.20;;;-3.30;82.30;;;;;;5115511;28;20487;-79
2022/03/01 04:09:31;;;;;;;14.20;5.82;;;-3.30;82.20;;;;;;5115218;28;20036;-80
2022/03/01 04:11:57;;;;;;;15.73;7.93;;;-3.30;82.20;;;;;;5115147;28;20031;-81
2022/03/01 04:14:23;;;;;;;14.18;7.07;;;-3.30;82.10;;;;;;5114729;28;20400;-78
2022/03/01 04:16:49;;;;;;;14.93;7.63;;;-3.30;82.20;;;;;;5115565;28;20047;-79
2022/03/01 04:19:17;;;;;;;10.88;6.85;;;-3.30;82.20;;;;;;5115327;28;20489;-79
2022/03/01 04:21:43;;;;;;;21.33;7.90;;;-3.30;82.60;;;;;;5096063;28;20064;-80
2022/03/01 04:24:09;;;;;;;14.13;7.20;;;-3.30;82.00;;;;;;5115894;28;20810;-80
2022/03/01 04:26:35;;;;;;;10.27;6.43;;;-3.30;82.10;;;;;;5115848;28;20024;-79
2022/03/01 04:29:00;;;;;;;13.73;7.18;;;-3.30;81.90;;;;;;5119749;28;20020;-79
2022/03/01 04:31:29;;;;;;;13.23;7.80;;;-3.30;81.70;;;;;;5120356;28;20373;-79
2022/03/01 04:33:56;;;;;;;15.63;7.13;;;-3.20;81.60;;;;;;5098600;28;20072;-78
2022/03/01 04:36:25;;;;;;;13.32;7.80;;;-3.30;81.50;;;;;;5099250;28;20027;-80
2022/03/01 04:38:51;;;;;;;11.02;6.53;;;-3.20;81.40;;;;;;5097171;28;20028;-78
2022/03/01 04:41:17;;;;;;;17.73;7.60;;;-3.20;81.30;;;;;;5115177;28;20039;-79
2022/03/01 04:43:42;;;;;;;16.67;7.20;;;-3.20;81.20;;;;;;5120461;28;20049;-79
2022/03/01 04:46:08;;;;;;;15.73;7.47;;;-3.20;81.20;;;;;;5124556;28;20028;-78
2022/03/01 04:48:34;;;;;;;12.80;6.63;;;-3.20;81.10;;;;;;5121911;28;20045;-80
2022/03/01 04:51:00;;;;;;;14.95;7.93;;;-3.20;81.10;;;;;;5120555;28;20012;-79
2022/03/01 04:53:26;;;;;;;16.27;8.20;;;-3.20;81.20;;;;;;5098325;28;20030;-80
2022/03/01 04:55:51;;;;;;;16.30;7.25;;;-3.20;81.40;;;;;;5116054;28;20050;-80
2022/03/01 04:58:17;;;;;;;13.68;6.43;;;-3.10;81.50;;;;;;5115233;28;20035;-81
2022/03/01 05:00:43;;;;;;;16.70;6.63;;;-3.20;81.30;;;;;;5114761;28;20504;-79
2022/03/01 05:03:09;;;;;;;18.23;9.20;;;-3.10;81.00;;;;;;5114504;28;20160;-82
2022/03/01 05:05:35;;;;;;;13.98;7.75;;;-3.10;80.90;;;;;;5115674;28;20494;-81
2022/03/01 05:08:01;;;;;;;17.05;7.47;;;-3.00;81.00;;;;;;5114909;28;20020;-80
2022/03/01 05:10:27;;;;;;;16.00;7.57;;;-3.00;81.10;;;;;;5116006;28;20165;-81
2022/03/01 05:12:57;;;;;;;17.90;7.68;;;-3.00;81.20;;;;;;5097526;28;20028;-78
2022/03/01 05:15:25;;;;;;;20.63;7.05;;;-3.00;81.20;;;;;;5114884;28;20019;-80
2022/03/01 05:17:51;;;;;;;16.80;6.85;;;-3.00;81.10;;;;;;5114878;28;20026;-79
2022/03/01 05:20:18;;;;;;;20.35;8.00;;;-2.90;80.70;;;;;;5114377;28;20400;-80
2022/03/01 05:22:45;;;;;;;19.60;7.47;;;-2.90;80.40;;;;;;5113956;28;20072;-80
2022/03/01 05:25:13;;;;;;;33.42;8.05;;;-2.90;80.40;;;;;;5113639;28;20028;-80
2022/03/01 05:27:42;;;;;;;17.27;7.28;;;-2.90;80.40;;;;;;5112808;28;20496;-78
2022/03/01 05:30:10;;;;;;;15.13;7.63;;;-2.90;79.80;;;;;;5113697;28;20106;-80
2022/03/01 05:32:38;;;;;;;12.50;7.40;;;-2.80;79.60;;;;;;5113340;28;20024;-79
2022/03/01 05:35:05;;;;;;;16.25;6.80;;;-2.80;79.40;;;;;;5113644;28;20089;-79
2022/03/01 05:37:31;;;;;;;16.30;7.80;;;-2.70;79.30;;;;;;5113311;28;20032;-82
2022/03/01 05:39:57;;;;;;;17.30;6.57;;;-2.70;79.20;;;;;;5113126;28;20032;-79
2022/03/01 05:42:23;;;;;;;14.50;7.45;;;-2.70;78.90;;;;;;5094940;28;20368;-78
2022/03/01 05:44:50;;;;;;;20.03;8.03;;;-2.60;78.70;;;;;;5113192;28;20034;-79
2022/03/01 05:47:17;;;;;;;21.98;8.38;;;-2.50;78.50;;;;;;5113543;28;20016;-79
2022/03/01 05:49:43;;;;;;;13.65;7.60;;;-2.50;78.30;;;;;;5113372;28;20031;-79
2022/03/01 05:52:09;;;;;;;15.55;7.68;;;-2.50;78.00;;;;;;5113849;28;20058;-79
2022/03/01 05:54:35;;;;;;;17.73;7.60;;;-2.40;77.70;;;;;;5116583;28;20028;-79
2022/03/01 05:57:00;;;;;;;24.02;7.50;;;-2.30;77.10;;;;;;5118769;28;20456;-80
2022/03/01 05:59:26;;;;;;;17.63;7.25;;;-2.30;77.00;;;;;;5120528;28;20087;-80
2022/03/01 06:01:52;;;;;;;25.02;8.10;;;-2.20;76.60;;;;;;5116339;28;20031;-80
2022/03/01 06:04:18;;;;;;;12.30;6.78;;;-2.20;76.40;;;;;;5113952;28;20464;-82
2022/03/01 06:06:44;;;;;;;16.75;7.45;;;-2.10;76.30;;;;;;5113951;28;20053;-80
2022/03/01 06:09:09;;;;;;;19.42;7.43;;;-2.00;76.30;;;;;;5094011;28;20540;-79
2022/03/01 06:11:35;;;;;;;18.40;7.90;;;-2.00;76.30;;;;;;5095245;28;20046;-82
2022/03/01 06:14:02;;;;;;;42.63;8.75;;;-2.00;76.20;;;;;;5094642;28;20388;-79
2022/03/01 06:16:28;;;;;;;13.88;8.25;;;-2.00;76.20;;;;;;5094229;28;20433;-81
2022/03/01 06:18:53;;;;;;;19.38;8.55;;;-1.90;76.50;;;;;;5112938;28;20110;-83
2022/03/01 06:21:20;;;;;;;23.88;8.93;;;-1.90;76.50;;;;;;5112758;28;20421;-81
2022/03/01 06:23:48;;;;;;;48.20;27.17;;;-1.90;76.50;;;;;;5113013;28;20020;-81
2022/03/01 06:26:14;;;;;;;29.52;12.75;;;-1.90;76.40;;;;;;5112878;28;20111;-80
2022/03/01 06:28:40;;;;;;;14.00;7.20;;;-1.80;76.30;;;;;;5113104;28;20057;-81
2022/03/01 06:31:06;;;;;;;15.90;8.65;;;-1.80;75.90;;;;;;5112718;28;20058;-81
2022/03/01 06:33:32;;;;;;;19.55;7.57;;;-1.70;75.30;;;;;;5112959;28;20023;-80
2022/03/01 06:35:57;;;;;;;17.48;7.13;;;-1.60;74.60;;;;;;5112774;28;20024;-81
2022/03/01 06:38:23;;;;;;;20.45;9.63;;;-1.50;74.10;;;;;;5114945;28;20401;-82
2022/03/01 06:40:51;;;;;;;17.95;7.60;;;-1.40;73.50;;;;;;5116917;28;20115;-82
2022/03/01 06:43:17;;;;;;;12.93;8.32;;;-1.40;73.20;;;;;;5117210;28;20040;-81
2022/03/01 06:45:43;;;;;;;18.48;7.10;;;-1.30;72.80;;;;;;5098550;28;20169;-82
2022/03/01 06:48:09;;;;;;;25.30;8.88;;;-1.20;72.50;;;;;;5116937;28;20081;-80
2022/03/01 06:50:35;;;;;;;20.13;11.43;;;-1.20;72.00;;;;;;5116677;28;20027;-81
2022/03/01 06:53:01;;;;;;;16.58;7.47;;;-1.10;71.90;;;;;;5117077;28;20047;-81
2022/03/01 06:55:27;;;;;;;21.38;7.85;;;-1.10;71.60;;;;;;5116844;28;20024;-80
2022/03/01 06:57:53;;;;;;;17.73;7.82;;;-1.00;71.60;;;;;;5118134;28;20020;-81
2022/03/01 07:00:20;;;;;;;18.60;10.02;;;-1.00;71.50;;;;;;5127892;28;20040;-80
2022/03/01 07:02:46;;;;;;;20.00;9.40;;;-0.90;71.20;;;;;;5129892;28;20015;-79
2022/03/01 07:05:14;;;;;;;14.80;7.72;;;-0.80;70.80;;;;;;5123061;28;20472;-81
2022/03/01 07:07:41;;;;;;;18.77;9.13;;;-0.80;70.50;;;;;;5119486;28;20026;-79
2022/03/01 07:10:11;;;;;;;14.73;6.80;;;-0.70;70.40;;;;;;5111117;28;20076;-80
2022/03/01 07:12:37;;;;;;;21.08;9.02;;;-0.60;70.20;;;;;;5099383;28;20075;-80
2022/03/01 07:15:04;;;;;;;27.95;8.80;;;-0.50;69.80;;;;;;5098720;28;20021;-82
2022/03/01 07:17:30;;;;;;;25.65;9.18;;;-0.40;69.60;;;;;;5097754;28;20358;-80
2022/03/01 07:19:56;;;;;;;21.35;8.27;;;-0.40;69.10;;;;;;5099891;28;20467;-80
2022/03/01 07:22:22;;;;;;;13.18;7.78;;;-0.30;68.90;;;;;;5116367;28;20024;-77
2022/03/01 07:24:48;;;;;;;22.50;9.85;;;-0.20;68.60;;;;;;5100128;28;20099;-81
2022/03/01 07:27:13;;;;;;;19.60;9.07;;;-0.10;68.00;;;;;;5095335;28;20023;-79
2022/03/01 07:29:39;;;;;;;21.20;8.93;;;0.00;67.80;;;;;;5095251;28;20027;-79
2022/03/01 07:32:06;;;;;;;26.05;7.90;;;0.10;67.50;;;;;;5095151;28;20563;-78
2022/03/01 07:34:33;;;;;;;23.88;8.60;;;0.10;67.40;;;;;;5111057;28;20016;-77
2022/03/01 07:36:59;;;;;;;21.20;10.60;;;0.20;67.10;;;;;;5076331;28;20028;-78
2022/03/01 07:39:25;;;;;;;26.33;8.60;;;0.30;66.80;;;;;;5095084;28;20032;-78
2022/03/01 07:41:51;;;;;;;14.27;7.60;;;0.60;66.80;;;;;;5077261;28;20081;-76
2022/03/01 07:44:18;;;;;;;14.98;8.70;;;1.50;66.10;;;;;;5077319;28;20361;-79
2022/03/01 07:46:44;;;;;;;22.50;8.17;;;2.80;63.90;;;;;;5094872;28;20025;-77
2022/03/01 07:49:10;;;;;;;21.80;8.27;;;3.50;59.80;;;;;;5094648;28;20020;-79
2022/03/01 07:51:36;;;;;;;17.27;7.97;;;3.50;58.10;;;;;;5098603;28;20445;-79
2022/03/01 07:54:02;;;;;;;20.00;8.95;;;3.10;57.90;;;;;;5115300;28;20106;-79
2022/03/01 07:56:28;;;;;;;23.90;9.85;;;2.80;58.40;;;;;;5115275;28;20020;-78
2022/03/01 07:58:54;;;;;;;23.92;9.77;;;2.40;59.20;;;;;;5097209;28;20032;-79
2022/03/01 08:01:20;;;;;;;14.27;8.35;;;2.30;60.00;;;;;;5114904;28;20118;-81
2022/03/01 08:03:47;;;;;;;19.67;8.10;;;2.10;59.80;;;;;;5096698;28;20023;-78
2022/03/01 08:06:13;;;;;;;10.53;6.77;;;2.00;59.70;;;;;;5114912;28;20484;-78
2022/03/01 08:08:40;;;;;;;17.95;7.18;;;1.90;59.90;;;;;;5098965;28;20051;-77
2022/03/01 08:11:06;;;;;;;22.15;8.45;;;2.00;60.10;;;;;;5094293;28;20044;-78
2022/03/01 08:13:33;;;;;;;29.25;8.82;;;2.10;60.20;;;;;;5095602;28;20027;-78
2022/03/01 08:15:59;;;;;;;23.67;10.25;;;2.20;59.80;;;;;;5115117;28;20027;-78
2022/03/01 08:18:25;;;;;;;20.55;8.77;;;2.60;59.80;;;;;;5115803;28;20039;-79
2022/03/01 08:20:51;;;;;;;34.30;10.43;;;3.90;59.70;;;;;;5114874;28;20040;-79
2022/03/01 08:23:17;;;;;;;31.98;10.30;;;5.90;57.40;;;;;;5114200;28;20069;-79
2022/03/01 08:25:43;;;;;;;24.23;10.10;;;8.10;53.50;;;;;;5096457;28;20440;-79
2022/03/01 08:28:09;;;;;;;25.00;9.57;;;9.70;47.80;;;;;;5115307;28;20022;-79
2022/03/01 08:30:37;;;;;;;20.90;9.50;;;10.70;44.70;;;;;;5114736;28;20421;-80
2022/03/01 08:33:04;;;;;;;18.63;10.13;;;11.50;42.50;;;;;;5114066;28;20136;-79
2022/03/01 08:35:32;;;;;;;18.63;9.82;;;12.50;40.50;;;;;;5115264;28;20032;-78
2022/03/01 08:38:02;;;;;;;25.40;9.48;;;13.50;39.20;;;;;;5115731;28;20384;-79
2022/03/01 08:40:32;;;;;;;21.00;9.30;;;14.40;36.00;;;;;;5096734;28;20080;-79
2022/03/01 08:42:58;;;;;;;19.98;9.68;;;14.60;35.40;;;;;;5114489;28;20361;-80
2022/03/01 08:45:24;;;;;;;17.42;8.82;;;14.60;34.80;;;;;;5095817;28;20032;-79
2022/03/01 08:47:51;;;;;;;21.15;9.65;;;14.90;34.50;;;;;;5114542;28;20020;-82
2022/03/01 08:50:17;;;;;;;18.23;10.93;;;15.40;34.10;;;;;;5097363;28;20024;-80
2022/03/01 08:52:43;;;;;;;17.90;9.38;;;16.10;33.10;;;;;;5104504;28;20076;-79
2022/03/01 08:55:09;;;;;;;27.50;9.98;;;16.50;32.60;;;;;;5113988;28;20084;-81
2022/03/01 08:57:36;;;;;;;21.40;11.45;;;17.00;31.70;;;;;;5114056;28;20468;-81
2022/03/01 09:00:06;;;;;;;21.10;10.40;;;16.70;30.40;;;;;;5113801;28;20055;-83
2022/03/01 09:02:35;;;;;;;16.85;9.40;;;16.30;30.50;;;;;;5114112;28;20468;-79
2022/03/01 09:05:01;;;;;;;26.75;12.80;;;16.40;30.50;;;;;;5095581;28;20031;-79
2022/03/01 09:07:27;;;;;;;26.08;12.52;;;16.30;30.30;;;;;;5112871;28;20099;-79
2022/03/01 09:09:53;;;;;;;24.70;13.43;;;16.50;30.30;;;;;;5113841;28;20063;-80
2022/03/01 09:12:19;;;;;;;30.38;15.00;;;16.90;29.80;;;;;;5113620;28;20077;-80
2022/03/01 09:14:45;;;;;;;20.73;12.18;;;17.20;29.60;;;;;;5114015;28;20023;-80
2022/03/01 09:17:10;;;;;;;20.90;13.05;;;17.20;29.00;;;;;;5096488;28;20023;-79
2022/03/01 09:19:36;;;;;;;19.50;13.00;;;17.20;29.20;;;;;;5116564;28;20070;-80
2022/03/01 09:22:02;;;;;;;23.80;13.63;;;17.60;29.10;;;;;;5115045;28;20579;-80
2022/03/01 09:24:29;;;;;;;25.35;13.38;;;18.40;28.70;;;;;;5106310;28;20024;-79
2022/03/01 09:27:00;;;;;;;22.73;14.07;;;19.00;28.00;;;;;;5093403;28;20051;-80
2022/03/01 09:29:28;;;;;;;18.73;13.30;;;19.30;27.90;;;;;;5093293;28;20481;-79
2022/03/01 09:31:54;;;;;;;21.00;14.02;;;19.10;27.60;;;;;;5093190;28;20540;-80
2022/03/01 09:34:20;;;;;;;16.10;11.82;;;18.90;27.20;;;;;;5074900;28;20074;-80
2022/03/01 09:36:46;;;;;;;16.35;9.98;;;19.30;27.20;;;;;;5092776;28;20043;-80
2022/03/01 09:39:11;;;;;;;22.20;11.52;;;19.60;26.10;;;;;;5092858;28;20476;-81
2022/03/01 09:41:39;;;;;;;25.42;11.82;;;19.70;26.40;;;;;;5091940;28;20028;-80
2022/03/01 09:44:05;;;;;;;18.88;10.63;;;20.10;26.40;;;;;;5092878;28;20024;-81
2022/03/01 09:46:31;;;;;;;21.20;10.10;;;20.60;25.90;;;;;;5094382;28;20028;-80
2022/03/01 09:48:57;;;;;;;19.02;8.98;;;21.00;25.60;;;;;;5094222;28;20055;-78
2022/03/01 09:51:24;;;;;;;24.85;9.20;;;20.90;25.20;;;;;;5102748;28;20023;-80
2022/03/01 09:53:51;;;;;;;;;;;20.30;25.30;;;;;;5113893;28;20020;-80
2022/03/01 09:56:18;;;;;;;12.73;7.90;;;20.00;27.40;;;;;;5113746;28;19911;-77
2022/03/01 09:58:46;;;;;;;14.70;8.43;;;20.30;25.70;;;;;;5109385;28;20456;-79
2022/03/01 10:01:12;;;;;;;13.10;7.63;;;20.90;25.30;;;;;;5093287;28;20036;-79
2022/03/01 10:03:38;;;;;;;12.32;7.28;;;20.80;24.80;;;;;;5093139;28;20380;-80
2022/03/01 10:06:13;;;;;;;12.93;7.70;;;21.00;24.40;;;;;;5094135;28;20020;-79
2022/03/01 10:08:39;;;;;;;12.63;7.30;;;21.40;24.40;;;;;;5093514;28;20383;-80
2022/03/01 10:11:05;;;;;;;17.67;6.82;;;21.50;24.20;;;;;;5095823;28;20052;-80
2022/03/01 10:13:33;;;;;;;14.50;7.03;;;21.90;24.10;;;;;;5115637;28;20025;-79
2022/03/01 10:16:06;;;;;;;16.33;6.82;;;21.30;23.90;;;;;;5096277;28;20404;-79
2022/03/01 10:18:52;;;;;;;13.57;6.65;;;21.40;23.90;;;;;;5095514;28;20020;-81
2022/03/01 10:21:21;;;;;;;16.27;5.80;;;21.20;24.20;;;;;;5112636;28;20059;-78
2022/03/01 10:23:54;;;;;;;9.73;5.57;;;21.40;23.60;;;;;;5112848;28;20068;-80
2022/03/01 10:26:23;;;;;;;11.82;4.47;;;21.30;23.20;;;;;;5112839;28;20047;-81
2022/03/01 10:28:51;;;;;;;13.60;4.28;;;20.90;23.10;;;;;;5113173;28;20027;-78
2022/03/01 10:31:19;;;;;;;11.35;3.45;;;20.50;23.70;;;;;;5111987;28;20036;-81
2022/03/01 10:34:06;;;;;;;6.28;3.78;;;20.00;23.10;;;;;;5112483;28;20020;-80
2022/03/01 10:36:47;;;;;;;6.20;4.32;;;18.80;23.40;;;;;;5112289;28;20024;-80
2022/03/01 10:39:25;;;;;;;10.77;3.78;;;17.00;24.20;;;;;;5094373;28;20362;-79
2022/03/01 10:41:52;;;;;;;7.63;3.17;;;15.10;24.80;;;;;;5112380;28;20457;-80
2022/03/01 10:44:22;;;;;;;6.78;3.00;;;13.60;25.70;;;;;;5112642;28;20095;-80
2022/03/01 10:46:57;;;;;;;6.18;2.28;;;12.20;26.50;;;;;;5111633;28;20427;-78
2022/03/01 10:49:40;;;;;;;7.22;2.65;;;11.20;26.80;;;;;;5112759;28;20022;-80
2022/03/01 10:52:08;;;;;;;5.38;2.22;;;10.40;27.40;;;;;;5112457;28;20020;-79
2022/03/01 10:54:43;;;;;;;7.78;2.95;;;9.60;27.50;;;;;;5112281;28;20111;-80
2022/03/01 10:57:11;;;;;;;5.80;2.13;;;9.10;28.10;;;;;;5094161;28;20380;-78
2022/03/01 10:59:39;;;;;;;5.90;2.10;;;8.80;28.30;;;;;;5094401;28;20470;-80
2022/03/01 11:02:06;;;;;;;4.05;2.20;;;8.30;28.30;;;;;;5111398;28;20035;-77
2022/03/01 11:04:32;;;;;;;6.88;2.70;;;7.90;29.40;;;;;;5111965;28;20020;-78
2022/03/01 11:07:02;;;;;;;5.85;2.80;;;7.60;29.20;;;;;;5112155;28;20031;-79
2022/03/01 11:09:30;;;;;;;8.65;2.75;;;7.40;29.60;;;;;;5112287;28;20384;-81
2022/03/01 11:11:58;;;;;;;7.07;4.32;;;7.20;30.00;;;;;;5112196;28;20509;-77
2022/03/01 11:14:29;;;;;;;10.60;3.42;;;7.20;30.10;;;;;;5113847;28;20384;-79
2022/03/01 11:17:22;;;;;;;15.63;3.80;;;7.20;30.40;;;;;;5094110;28;20492;-79
2022/03/01 11:20:14;;;;;;;6.35;3.35;;;6.90;30.80;;;;;;5094112;28;20035;-79
2022/03/01 11:22:57;;;;;;;7.93;3.90;;;6.90;31.00;;;;;;5112129;28;20027;-78
2022/03/01 11:25:27;;;;;;;15.90;4.88;;;6.80;31.10;;;;;;5115523;28;20016;-77
2022/03/01 11:28:00;;;;;;;13.25;4.30;;;6.80;31.70;;;;;;5097563;28;20028;-80
2022/03/01 11:30:33;;;;;;;8.82;3.65;;;6.80;31.60;;;;;;5098125;28;20051;-78
2022/03/01 11:32:59;;;;;;;8.70;3.53;;;6.70;31.20;;;;;;5109694;28;20026;-79
2022/03/01 11:35:28;;;;;;;6.68;3.05;;;6.60;31.30;;;;;;5100118;28;20475;-79
2022/03/01 11:38:12;;;;;;;13.13;3.33;;;6.50;31.40;;;;;;5112885;28;20433;-77
2022/03/01 11:40:40;;;;;;;9.35;2.78;;;6.40;31.60;;;;;;5116221;28;20031;-78
2022/03/01 11:43:20;;;;;;;7.90;2.42;;;6.30;32.20;;;;;;5116029;28;20012;-78
2022/03/01 11:45:57;;;;;;;7.82;2.38;;;6.20;31.80;;;;;;5098229;28;20024;-77
2022/03/01 11:48:25;;;;;;;5.13;3.30;;;6.10;31.90;;;;;;5097607;28;20011;-78
2022/03/01 11:50:57;;;;;;;9.32;3.45;;;6.10;31.90;;;;;;5115614;28;20106;-78
2022/03/01 11:53:25;;;;;;;8.13;2.85;;;6.10;31.80;;;;;;5110112;28;20024;-78
2022/03/01 11:55:56;;;;;;;8.07;3.58;;;6.10;32.00;;;;;;5094738;28;20038;-80
2022/03/01 11:58:24;;;;;;;7.00;3.42;;;6.10;32.30;;;;;;5094836;28;20091;-78
2022/03/01 12:00:50;;;;;;;18.63;3.75;;;6.10;32.30;;;;;;5094590;28;20370;-80
2022/03/01 12:03:20;;;;;;;19.73;3.92;;;6.10;32.50;;;;;;5076258;28;20072;-78
2022/03/01 12:05:48;;;;;;;14.07;4.18;;;6.10;32.90;;;;;;5094352;28;20016;-78
2022/03/01 12:08:15;;;;;;;13.70;4.35;;;6.00;32.70;;;;;;5096573;28;20042;-77
2022/03/01 12:11:13;;;;;;;13.00;4.22;;;6.00;33.10;;;;;;5114813;28;20105;-80
2022/03/01 12:13:43;;;;;;;10.43;3.88;;;6.00;33.10;;;;;;5063390;28;20497;-77
2022/03/01 12:16:12;;;;;;;12.77;3.33;;;6.00;33.80;;;;;;5115178;28;20019;-80
2022/03/01 12:18:39;;;;;;;12.05;3.90;;;6.00;33.40;;;;;;5096519;28;20027;-80
2022/03/01 12:21:08;;;;;;;11.75;4.63;;;6.00;33.90;;;;;;5096275;28;20032;-76
2022/03/01 12:23:37;;;;;;;10.45;4.40;;;6.10;34.10;;;;;;5108768;28;20054;-81
2022/03/01 12:26:05;;;;;;;8.75;4.68;;;6.10;34.70;;;;;;5076019;28;20477;-79
2022/03/01 12:28:42;;;;;;;13.60;4.60;;;6.20;34.90;;;;;;5094082;28;20024;-78
2022/03/01 12:31:12;;;;;;;15.77;4.15;;;6.10;35.00;;;;;;5094296;28;20024;-78
2022/03/01 12:33:58;;;;;;;18.33;4.53;;;6.10;35.20;;;;;;5093959;28;20027;-79
2022/03/01 12:36:30;;;;;;;13.30;4.15;;;6.10;35.60;;;;;;5094029;28;20081;-79
2022/03/01 12:39:01;;;;;;;8.38;4.15;;;6.10;36.00;;;;;;5101068;28;20069;-78
2022/03/01 12:41:27;;;;;;;8.80;4.20;;;6.00;35.90;;;;;;5114574;28;20533;-77